Time;durP1;ratioP1;P1;durP2;ratioP2;P2;SDS_P1;SDS_P2;PMS_P1;PMS_P2;Temp;Humidity;BMP_temperature;BMP_pressure;BME280_temperature;BME280_humidity;BME280_pressure;Samples;Min_cycle;Max_cycle;Signal;HPM_P1;HPM_P2
2021/06/18 00:00:11;;;;;;;15.82;14.32;;;21.20;99.90;;;;;;5074842;28;20359;-73
2021/06/18 00:02:37;;;;;;;15.45;13.90;;;21.20;99.90;;;;;;5075486;28;20040;-73
2021/06/18 00:05:08;;;;;;;17.15;14.90;;;21.30;99.90;;;;;;5074661;28;20028;-71
2021/06/18 00:07:34;;;;;;;14.48;13.05;;;21.40;99.90;;;;;;5075286;28;20393;-72
2021/06/18 00:10:01;;;;;;;15.27;13.98;;;21.40;99.90;;;;;;5075072;28;20373;-73
2021/06/18 00:12:27;;;;;;;17.92;16.23;;;21.40;99.90;;;;;;5074984;28;20460;-72
2021/06/18 00:14:53;;;;;;;16.30;14.70;;;21.40;99.90;;;;;;5075040;28;20024;-73
2021/06/18 00:17:19;;;;;;;17.08;15.55;;;21.30;99.90;;;;;;5074207;28;20033;-73
2021/06/18 00:19:46;;;;;;;17.52;15.82;;;21.20;99.90;;;;;;5074823;28;20363;-72
2021/06/18 00:22:12;;;;;;;16.27;14.85;;;21.20;99.90;;;;;;5073852;28;20048;-72
2021/06/18 00:24:38;;;;;;;16.50;14.98;;;21.20;99.90;;;;;;5074222;28;20416;-73
2021/06/18 00:27:05;;;;;;;16.30;14.90;;;21.20;99.90;;;;;;5083922;28;20496;-73
2021/06/18 00:29:31;;;;;;;15.30;13.85;;;21.20;99.90;;;;;;5086054;28;20040;-72
2021/06/18 00:31:57;;;;;;;14.77;13.48;;;21.30;99.90;;;;;;5074632;28;20044;-72
2021/06/18 00:34:23;;;;;;;15.15;13.70;;;21.20;99.90;;;;;;5074202;28;20024;-72
2021/06/18 00:36:49;;;;;;;15.13;13.73;;;21.00;99.90;;;;;;5074553;28;20044;-73
2021/06/18 00:39:16;;;;;;;13.35;12.07;;;21.00;99.90;;;;;;5074268;28;20032;-73
2021/06/18 00:41:45;;;;;;;11.10;10.10;;;20.80;99.90;;;;;;5075289;28;20024;-73
2021/06/18 00:44:11;;;;;;;12.60;11.30;;;20.60;99.90;;;;;;5074236;28;20032;-73
2021/06/18 00:46:37;;;;;;;12.65;11.40;;;20.50;99.90;;;;;;5073634;28;20063;-71
2021/06/18 00:49:03;;;;;;;11.40;10.40;;;20.30;99.90;;;;;;5074290;28;20040;-72
2021/06/18 00:51:30;;;;;;;11.85;10.65;;;20.40;99.90;;;;;;5087631;28;20036;-72
2021/06/18 00:53:56;;;;;;;12.23;11.13;;;20.30;99.90;;;;;;5089053;28;20044;-72
2021/06/18 00:56:22;;;;;;;14.38;13.00;;;20.30;99.90;;;;;;5072869;28;20458;-73
2021/06/18 00:58:49;;;;;;;13.32;12.02;;;20.40;99.90;;;;;;5074438;28;20053;-73
2021/06/18 01:01:15;;;;;;;15.02;13.52;;;20.40;99.90;;;;;;5073958;28;20385;-73
2021/06/18 01:03:42;;;;;;;13.80;12.60;;;20.30;99.90;;;;;;5074159;28;20032;-73
2021/06/18 01:06:12;;;;;;;12.05;10.95;;;20.30;99.90;;;;;;5088856;28;20036;-73
2021/06/18 01:08:52;;;;;;;11.65;10.63;;;20.40;99.90;;;;;;5074537;28;20047;-73
2021/06/18 01:11:22;;;;;;;12.20;11.07;;;20.30;99.90;;;;;;5073604;28;20033;-74
2021/06/18 01:13:57;;;;;;;13.55;12.25;;;20.30;99.90;;;;;;5073405;28;20053;-74
2021/06/18 01:16:36;;;;;;;13.18;11.95;;;20.10;99.90;;;;;;5073670;28;20374;-73
2021/06/18 01:19:10;;;;;;;13.30;12.07;;;20.10;99.90;;;;;;5073501;28;20028;-75
2021/06/18 01:21:43;;;;;;;12.13;11.02;;;19.90;99.90;;;;;;5073294;28;20044;-74
2021/06/18 01:24:39;;;;;;;13.02;11.00;;;19.80;99.90;;;;;;5073780;28;20036;-74
2021/06/18 01:27:18;;;;;;;14.35;12.13;;;19.60;99.90;;;;;;5073232;28;20037;-73
2021/06/18 01:30:24;;;;;;;12.35;11.25;;;19.60;99.90;;;;;;5073511;28;20051;-73
2021/06/18 01:33:08;;;;;;;13.93;12.63;;;19.30;99.90;;;;;;5072194;28;20048;-73
2021/06/18 01:35:39;;;;;;;13.68;12.27;;;19.30;99.90;;;;;;5073459;28;20409;-73
2021/06/18 01:38:09;;;;;;;13.10;11.98;;;19.30;99.90;;;;;;5073236;28;20043;-73
2021/06/18 01:40:37;;;;;;;17.27;12.65;;;19.40;99.90;;;;;;5073268;28;20040;-73
2021/06/18 01:43:06;;;;;;;14.45;12.95;;;19.50;99.90;;;;;;5073111;28;20043;-74
2021/06/18 01:45:35;;;;;;;14.20;12.88;;;19.60;99.90;;;;;;5073361;28;20036;-73
2021/06/18 01:48:04;;;;;;;14.07;12.70;;;19.60;99.90;;;;;;5073010;28;20036;-73
2021/06/18 01:50:33;;;;;;;14.40;13.00;;;19.70;99.90;;;;;;5073495;28;20048;-73
2021/06/18 01:53:15;;;;;;;14.93;13.50;;;19.60;99.90;;;;;;5073369;28;20036;-73
2021/06/18 01:55:43;;;;;;;14.68;13.27;;;19.50;99.90;;;;;;5073003;28;20040;-73
2021/06/18 01:58:11;;;;;;;14.55;13.18;;;19.40;99.90;;;;;;5072389;28;20060;-73
2021/06/18 02:00:40;;;;;;;15.45;14.10;;;19.40;99.90;;;;;;5073087;28;20494;-73
2021/06/18 02:03:14;;;;;;;15.52;14.13;;;19.30;99.90;;;;;;5072401;28;20039;-73
2021/06/18 02:05:42;;;;;;;15.25;13.85;;;19.20;99.90;;;;;;5073080;28;20434;-73
2021/06/18 02:08:10;;;;;;;14.50;13.20;;;19.10;99.90;;;;;;5072249;28;20043;-73
2021/06/18 02:10:41;;;;;;;14.57;13.18;;;19.10;99.90;;;;;;5072212;28;20048;-73
2021/06/18 02:13:09;;;;;;;13.85;12.55;;;19.10;99.90;;;;;;5072660;28;20031;-72
2021/06/18 02:15:38;;;;;;;15.15;13.65;;;19.00;99.90;;;;;;5072699;28;20466;-72
2021/06/18 02:18:07;;;;;;;14.85;13.20;;;19.00;99.90;;;;;;5072792;28;20033;-73
2021/06/18 02:20:34;;;;;;;14.27;12.98;;;18.90;99.90;;;;;;5072765;28;20457;-73
2021/06/18 02:23:01;;;;;;;14.20;12.90;;;18.90;99.90;;;;;;5092211;28;20469;-73
2021/06/18 02:25:31;;;;;;;13.07;11.85;;;18.90;99.90;;;;;;5075678;28;20024;-73
2021/06/18 02:27:59;;;;;;;13.75;12.38;;;19.10;99.90;;;;;;5074821;28;20481;-73
2021/06/18 02:30:25;;;;;;;12.77;11.57;;;19.20;99.90;;;;;;5071972;28;20028;-73
2021/06/18 02:32:55;;;;;;;13.45;12.25;;;19.30;99.90;;;;;;5072230;28;20040;-72
2021/06/18 02:35:21;;;;;;;13.23;11.93;;;19.40;99.90;;;;;;5071865;28;20618;-72
2021/06/18 02:37:47;;;;;;;13.73;12.43;;;19.40;99.90;;;;;;5072354;28;20048;-72
2021/06/18 02:40:14;;;;;;;14.25;12.95;;;19.40;99.90;;;;;;5071920;28;20037;-73
2021/06/18 02:42:40;;;;;;;12.82;11.73;;;19.40;99.90;;;;;;5071880;28;20052;-73
2021/06/18 02:45:07;;;;;;;12.82;11.48;;;19.40;99.90;;;;;;5081480;28;20373;-73
2021/06/18 02:47:44;;;;;;;12.27;11.07;;;19.50;99.90;;;;;;5072511;28;20470;-72
2021/06/18 02:50:15;;;;;;;13.45;12.35;;;19.60;99.90;;;;;;5071993;28;20032;-73
2021/06/18 02:52:51;;;;;;;11.90;10.63;;;19.60;99.90;;;;;;5072731;28;20028;-72
2021/06/18 02:55:26;;;;;;;11.43;10.20;;;19.60;99.90;;;;;;5082258;28;20045;-73
2021/06/18 02:58:19;;;;;;;12.20;10.88;;;19.90;99.90;;;;;;5077524;28;20048;-73
2021/06/18 03:00:47;;;;;;;12.05;10.52;;;20.20;99.90;;;;;;5081299;28;20029;-73
2021/06/18 03:03:18;;;;;;;13.75;10.95;;;20.40;99.90;;;;;;5071939;28;20028;-72
2021/06/18 03:05:47;;;;;;;16.42;14.10;;;20.50;99.90;;;;;;5071985;28;20029;-73
2021/06/18 03:08:15;;;;;;;17.17;15.48;;;20.70;99.90;;;;;;5069694;28;20052;-73
2021/06/18 03:10:45;;;;;;;19.02;17.02;;;21.10;99.90;;;;;;5072201;28;20036;-73
2021/06/18 03:13:15;;;;;;;21.45;19.20;;;21.30;99.90;;;;;;5071784;28;20033;-73
2021/06/18 03:15:44;;;;;;;22.00;19.73;;;21.30;99.90;;;;;;5071592;28;20032;-73
2021/06/18 03:18:12;;;;;;;23.17;19.27;;;21.60;99.90;;;;;;5071313;28;20400;-72
2021/06/18 03:20:39;;;;;;;21.38;19.17;;;21.80;99.90;;;;;;5076283;28;20035;-72
2021/06/18 03:23:09;;;;;;;23.00;18.73;;;21.70;99.90;;;;;;5075860;28;20029;-73
2021/06/18 03:25:38;;;;;;;21.27;19.08;;;21.70;99.90;;;;;;5076241;28;20040;-72
2021/06/18 03:28:07;;;;;;;21.58;19.08;;;21.60;99.90;;;;;;5075856;28;20106;-72
2021/06/18 03:30:34;;;;;;;22.13;17.58;;;21.40;99.90;;;;;;5075722;28;20036;-72
2021/06/18 03:33:03;;;;;;;21.98;18.70;;;21.40;99.90;;;;;;5074758;28;20378;-71
2021/06/18 03:35:30;;;;;;;18.20;16.10;;;21.30;99.90;;;;;;5074707;28;20028;-72
2021/06/18 03:37:58;;;;;;;19.63;17.38;;;21.30;99.90;;;;;;5074702;28;20051;-72
2021/06/18 03:40:24;;;;;;;18.13;16.40;;;21.30;99.90;;;;;;5075900;28;20028;-73
2021/06/18 03:42:52;;;;;;;23.40;17.48;;;21.30;99.90;;;;;;5082924;28;20031;-72
2021/06/18 03:45:21;;;;;;;18.65;16.88;;;21.40;99.90;;;;;;5088153;28;20374;-72
2021/06/18 03:47:49;;;;;;;18.85;16.95;;;21.40;99.90;;;;;;5076172;28;20044;-74
2021/06/18 03:50:19;;;;;;;17.20;15.05;;;21.30;99.90;;;;;;5079237;28;20049;-72
2021/06/18 03:52:45;;;;;;;16.15;14.52;;;21.20;99.90;;;;;;5093602;28;20040;-72
2021/06/18 03:55:12;;;;;;;16.30;14.85;;;21.10;99.90;;;;;;5087728;28;20032;-73
2021/06/18 03:57:40;;;;;;;14.95;13.35;;;20.90;99.90;;;;;;5075452;28;20520;-72
2021/06/18 04:00:08;;;;;;;19.27;14.60;;;20.90;99.90;;;;;;5075773;28;20036;-72
2021/06/18 04:02:39;;;;;;;17.00;15.07;;;20.90;99.90;;;;;;5082301;28;20044;-72
2021/06/18 04:05:07;;;;;;;16.35;14.75;;;20.80;99.90;;;;;;5075425;28;20032;-73
2021/06/18 04:07:34;;;;;;;17.42;15.55;;;20.80;99.90;;;;;;5077408;28;20049;-72
2021/06/18 04:10:02;;;;;;;16.52;14.93;;;20.70;99.90;;;;;;5084548;28;20035;-73
2021/06/18 04:12:29;;;;;;;15.93;14.25;;;20.70;99.90;;;;;;5074969;28;20032;-73
2021/06/18 04:14:56;;;;;;;15.15;13.65;;;20.70;99.90;;;;;;5075444;28;20488;-72
2021/06/18 04:17:22;;;;;;;13.63;12.20;;;20.90;99.90;;;;;;5074422;28;20028;-73
2021/06/18 04:19:51;;;;;;;13.63;12.35;;;21.40;99.90;;;;;;5075211;28;20045;-72
2021/06/18 04:22:30;;;;;;;13.95;11.45;;;22.40;99.90;;;;;;5083947;28;20039;-73
2021/06/18 04:24:56;;;;;;;12.88;11.63;;;23.10;96.40;;;;;;5074855;28;20382;-73
2021/06/18 04:27:23;;;;;;;12.75;10.45;;;23.40;94.40;;;;;;5078349;28;20048;-73
2021/06/18 04:29:49;;;;;;;11.30;10.20;;;23.80;92.90;;;;;;5083451;28;20036;-73
2021/06/18 04:32:16;;;;;;;13.25;11.63;;;24.30;91.70;;;;;;5074438;28;20025;-73
2021/06/18 04:34:42;;;;;;;10.82;9.70;;;24.60;90.70;;;;;;5076966;28;20036;-73
2021/06/18 04:37:08;;;;;;;11.38;9.95;;;24.80;87.90;;;;;;5074419;28;20485;-74
2021/06/18 04:39:35;;;;;;;11.30;10.05;;;24.80;86.30;;;;;;5078117;28;20048;-77
2021/06/18 04:42:01;;;;;;;10.65;9.05;;;24.50;85.60;;;;;;5081675;28;20039;-73
2021/06/18 04:44:29;;;;;;;10.48;9.38;;;24.70;85.70;;;;;;5074084;28;20040;-73
2021/06/18 04:46:55;;;;;;;8.50;7.72;;;25.40;83.50;;;;;;5074384;28;20029;-73
2021/06/18 04:49:21;;;;;;;8.98;7.57;;;26.10;80.10;;;;;;5075386;28;20385;-72
2021/06/18 04:51:48;;;;;;;12.15;8.40;;;26.40;77.60;;;;;;5077756;28;20035;-75
2021/06/18 04:54:14;;;;;;;11.10;7.43;;;27.00;73.60;;;;;;5075804;28;20024;-76
2021/06/18 04:56:41;;;;;;;8.32;7.35;;;26.80;72.50;;;;;;5075237;28;20037;-76
2021/06/18 04:59:08;;;;;;;9.75;6.93;;;27.20;72.40;;;;;;5074542;28;20045;-76
2021/06/18 05:01:34;;;;;;;7.18;6.45;;;27.70;70.10;;;;;;5074930;28;20032;-78
2021/06/18 05:04:00;;;;;;;8.60;6.28;;;28.00;68.60;;;;;;5074666;28;20095;-77
2021/06/18 05:06:27;;;;;;;8.15;6.82;;;27.80;67.80;;;;;;5074300;28;20718;-78
2021/06/18 05:08:53;;;;;;;8.98;7.15;;;27.50;68.90;;;;;;5074336;28;20302;-76
2021/06/18 05:11:22;;;;;;;8.05;6.70;;;27.80;68.30;;;;;;5073929;28;20033;-76
2021/06/18 05:13:49;;;;;;;9.18;7.10;;;28.10;67.90;;;;;;5066440;28;20036;-72
2021/06/18 05:16:16;;;;;;;7.45;6.65;;;28.40;67.20;;;;;;5085659;28;20477;-72
2021/06/18 05:18:42;;;;;;;7.85;7.05;;;28.80;65.90;;;;;;5088206;28;20481;-73
2021/06/18 05:21:09;;;;;;;10.63;7.70;;;28.50;64.20;;;;;;5075696;28;20381;-73
2021/06/18 05:23:35;;;;;;;7.38;6.65;;;28.30;65.10;;;;;;5073528;28;20040;-72
2021/06/18 05:26:01;;;;;;;8.43;7.47;;;29.20;63.40;;;;;;5073738;28;20037;-72
2021/06/18 05:28:27;;;;;;;11.02;7.60;;;29.00;63.40;;;;;;5073294;28;20267;-75
2021/06/18 05:30:54;;;;;;;8.02;7.22;;;28.70;63.20;;;;;;5073573;28;20052;-74
2021/06/18 05:33:20;;;;;;;13.05;8.05;;;29.20;62.70;;;;;;5072916;28;20044;-73
2021/06/18 05:35:46;;;;;;;8.13;7.30;;;29.50;61.50;;;;;;5073704;28;20024;-73
2021/06/18 05:38:12;;;;;;;10.30;7.82;;;28.30;63.00;;;;;;5072470;28;20036;-74
2021/06/18 05:40:42;;;;;;;11.95;8.27;;;28.70;63.30;;;;;;5073026;28;20048;-74
2021/06/18 05:43:10;;;;;;;9.00;8.07;;;28.60;64.40;;;;;;5075324;28;20028;-72
2021/06/18 05:45:40;;;;;;;8.48;7.60;;;29.10;62.20;;;;;;5074792;28;20028;-73
2021/06/18 05:48:07;;;;;;;11.00;7.18;;;28.50;63.60;;;;;;5073642;28;20048;-74
2021/06/18 05:50:34;;;;;;;11.98;7.55;;;28.30;64.00;;;;;;5084996;28;20036;-73
2021/06/18 05:53:00;;;;;;;15.45;8.32;;;29.30;62.70;;;;;;5072834;28;20044;-74
2021/06/18 05:55:27;;;;;;;8.85;7.72;;;30.20;61.50;;;;;;5072764;28;20417;-74
2021/06/18 05:57:53;;;;;;;9.25;7.95;;;31.10;59.50;;;;;;5077226;28;20060;-73
2021/06/18 06:00:20;;;;;;;11.10;8.00;;;31.70;57.90;;;;;;5072372;28;20465;-74
2021/06/18 06:02:46;;;;;;;9.23;7.90;;;31.90;58.00;;;;;;5072624;28;20028;-74
2021/06/18 06:05:13;;;;;;;8.77;7.85;;;32.20;56.30;;;;;;5072601;28;20043;-74
2021/06/18 06:07:48;;;;;;;14.15;7.70;;;32.40;56.10;;;;;;5072773;28;20040;-72
2021/06/18 06:10:15;;;;;;;14.27;8.07;;;32.00;55.40;;;;;;5071022;28;20035;-76
2021/06/18 06:12:42;;;;;;;9.07;7.25;;;31.60;56.10;;;;;;5074393;28;20037;-75
2021/06/18 06:15:09;;;;;;;8.57;7.63;;;31.20;56.40;;;;;;5077178;28;20458;-75
2021/06/18 06:17:35;;;;;;;9.00;7.35;;;31.30;56.80;;;;;;5072761;28;20032;-75
2021/06/18 06:20:06;;;;;;;11.38;7.97;;;31.20;57.90;;;;;;5073176;28;20032;-75
2021/06/18 06:22:35;;;;;;;10.88;8.02;;;30.80;58.60;;;;;;5073513;28;20028;-74
2021/06/18 06:25:02;;;;;;;8.50;7.53;;;30.60;58.80;;;;;;5072153;28;20036;-74
2021/06/18 06:27:28;;;;;;;8.55;7.53;;;30.70;60.50;;;;;;5089760;28;20048;-74
2021/06/18 06:29:54;;;;;;;8.40;7.60;;;31.10;57.00;;;;;;5081827;28;20024;-74
2021/06/18 06:32:20;;;;;;;9.35;7.50;;;31.00;57.10;;;;;;5071569;28;20035;-74
2021/06/18 06:34:47;;;;;;;7.85;7.10;;;30.50;58.60;;;;;;5072071;28;20478;-73
2021/06/18 06:37:13;;;;;;;15.23;7.53;;;30.40;58.70;;;;;;5070581;28;20048;-74
2021/06/18 06:39:39;;;;;;;9.50;6.95;;;30.10;59.40;;;;;;5076303;28;20028;-75
2021/06/18 06:42:06;;;;;;;8.68;7.88;;;29.40;60.10;;;;;;5071997;28;20036;-71
2021/06/18 06:44:33;;;;;;;11.50;8.13;;;30.00;60.00;;;;;;5084410;28;20397;-72
2021/06/18 06:46:59;;;;;;;8.57;7.70;;;30.40;58.30;;;;;;5088843;28;20031;-72
2021/06/18 06:49:25;;;;;;;9.80;8.07;;;30.60;58.30;;;;;;5090159;28;20044;-71
2021/06/18 06:51:52;;;;;;;9.88;7.45;;;29.70;59.10;;;;;;5089366;28;20040;-71
2021/06/18 06:54:19;;;;;;;8.02;7.05;;;30.10;59.20;;;;;;5089927;28;20031;-72
2021/06/18 06:56:45;;;;;;;8.18;7.38;;;29.90;59.10;;;;;;5089192;28;20028;-72
2021/06/18 06:59:11;;;;;;;8.70;7.82;;;30.10;58.80;;;;;;5080961;28;20051;-72
2021/06/18 07:01:40;;;;;;;8.43;7.40;;;30.00;59.00;;;;;;5071879;28;20036;-73
2021/06/18 07:04:06;;;;;;;8.48;7.65;;;30.60;58.00;;;;;;5072010;28;20032;-71
2021/06/18 07:06:33;;;;;;;10.48;8.32;;;30.10;58.30;;;;;;5071044;28;20029;-78
2021/06/18 07:09:00;;;;;;;10.32;8.82;;;30.40;58.30;;;;;;5077437;28;20059;-72
2021/06/18 07:11:26;;;;;;;10.60;9.63;;;30.80;57.50;;;;;;5085888;28;20067;-72
2021/06/18 07:13:52;;;;;;;9.43;8.52;;;30.40;58.40;;;;;;5075061;28;20036;-72
2021/06/18 07:16:18;;;;;;;10.35;9.25;;;30.10;59.20;;;;;;5085283;28;20028;-72
2021/06/18 07:18:45;;;;;;;8.60;7.78;;;30.00;58.70;;;;;;5071577;28;20052;-72
2021/06/18 07:21:11;;;;;;;10.00;8.52;;;30.60;58.40;;;;;;5071094;28;20040;-71
2021/06/18 07:23:38;;;;;;;9.13;7.90;;;31.30;57.40;;;;;;5071179;28;20047;-73
2021/06/18 07:26:04;;;;;;;9.95;8.32;;;31.10;58.10;;;;;;5072890;28;20053;-72
2021/06/18 07:28:30;;;;;;;9.25;8.40;;;31.00;57.40;;;;;;5089421;28;20056;-73
2021/06/18 07:30:57;;;;;;;9.80;8.90;;;31.60;57.00;;;;;;5087725;28;20051;-75
2021/06/18 07:33:23;;;;;;;12.40;9.45;;;30.90;57.30;;;;;;5082625;28;20032;-72
2021/06/18 07:35:51;;;;;;;9.07;8.27;;;31.30;57.70;;;;;;5083640;28;20123;-72
2021/06/18 07:38:21;;;;;;;9.38;8.48;;;31.10;57.60;;;;;;5087533;28;20425;-72
2021/06/18 07:40:47;;;;;;;8.63;7.93;;;31.30;57.60;;;;;;5076027;28;20043;-72
2021/06/18 07:43:13;;;;;;;8.90;7.22;;;31.50;56.70;;;;;;5082190;28;20031;-73
2021/06/18 07:45:40;;;;;;;10.57;7.78;;;31.60;55.80;;;;;;5078278;28;20044;-71
2021/06/18 07:48:09;;;;;;;10.20;7.93;;;31.50;55.70;;;;;;5070731;28;20470;-71
2021/06/18 07:50:38;;;;;;;8.85;6.75;;;31.70;56.50;;;;;;5070558;28;20036;-72
2021/06/18 07:53:04;;;;;;;10.82;7.15;;;32.30;55.30;;;;;;5074142;28;20366;-72
2021/06/18 07:55:31;;;;;;;8.38;7.57;;;32.20;55.70;;;;;;5071213;28;20028;-72
2021/06/18 07:57:58;;;;;;;14.18;8.20;;;31.60;56.00;;;;;;5070264;28;20147;-72
2021/06/18 08:00:25;;;;;;;12.45;8.20;;;30.70;57.10;;;;;;5070139;28;20069;-75
2021/06/18 08:02:52;;;;;;;8.43;7.13;;;30.80;57.20;;;;;;5083757;28;20032;-72
2021/06/18 08:05:18;;;;;;;10.77;7.82;;;31.50;56.30;;;;;;5083817;28;20488;-71
2021/06/18 08:07:46;;;;;;;8.35;7.38;;;31.70;55.70;;;;;;5074938;28;20067;-71
2021/06/18 08:10:15;;;;;;;7.70;7.00;;;31.90;55.30;;;;;;5076202;28;20051;-74
2021/06/18 08:12:43;;;;;;;14.13;7.03;;;32.20;54.30;;;;;;5074857;28;20402;-70
2021/06/18 08:15:10;;;;;;;8.50;7.53;;;32.10;54.60;;;;;;5074275;28;20044;-71
2021/06/18 08:17:36;;;;;;;10.68;7.50;;;31.80;54.80;;;;;;5077110;28;20028;-76
2021/06/18 08:20:05;;;;;;;8.15;7.35;;;31.90;55.80;;;;;;5083836;28;20037;-73
2021/06/18 08:22:33;;;;;;;8.63;7.82;;;32.00;54.10;;;;;;5078795;28;20029;-70
2021/06/18 08:25:02;;;;;;;11.68;7.13;;;32.40;53.90;;;;;;5077566;28;20059;-72
2021/06/18 08:27:30;;;;;;;10.25;7.20;;;32.40;54.20;;;;;;5087572;28;20043;-72
2021/06/18 08:30:01;;;;;;;8.23;7.53;;;32.50;54.10;;;;;;5100456;28;20036;-72
2021/06/18 08:32:28;;;;;;;8.13;7.32;;;32.00;54.90;;;;;;5075457;28;20032;-72
2021/06/18 08:34:55;;;;;;;10.15;7.60;;;32.10;53.90;;;;;;5073911;28;20486;-71
2021/06/18 08:37:21;;;;;;;9.15;7.82;;;32.20;53.90;;;;;;5076939;28;20050;-75
2021/06/18 08:39:48;;;;;;;8.68;7.45;;;32.20;54.40;;;;;;5087699;28;20043;-75
2021/06/18 08:42:15;;;;;;;11.35;7.10;;;33.10;52.90;;;;;;5073391;28;20036;-76
2021/06/18 08:44:45;;;;;;;8.32;6.85;;;32.70;53.10;;;;;;5074988;28;20225;-75
2021/06/18 08:47:14;;;;;;;10.73;6.35;;;32.00;54.40;;;;;;5074664;28;20032;-78
2021/06/18 08:49:42;;;;;;;8.27;6.95;;;31.90;53.80;;;;;;5074936;28;20037;-76
2021/06/18 08:52:09;;;;;;;9.57;7.38;;;31.80;53.70;;;;;;5081684;28;20041;-75
2021/06/18 08:54:42;;;;;;;10.95;6.70;;;32.30;53.50;;;;;;5074260;28;20366;-76
2021/06/18 08:57:11;;;;;;;8.52;7.10;;;32.20;53.50;;;;;;5083951;28;20055;-76
2021/06/18 08:59:38;;;;;;;;;;;32.30;53.50;;;;;;5074494;28;20029;-75
2021/06/18 09:02:08;;;;;;;7.93;7.03;;;33.00;51.90;;;;;;5073862;28;19937;-76
2021/06/18 09:05:13;;;;;;;10.30;7.07;;;33.20;51.50;;;;;;5081048;28;20373;-74
2021/06/18 09:08:00;;;;;;;7.70;6.45;;;33.20;51.50;;;;;;5082620;28;20478;-74
2021/06/18 09:10:31;;;;;;;7.07;6.40;;;33.00;52.10;;;;;;5077172;28;20387;-73
2021/06/18 09:13:30;;;;;;;10.30;7.70;;;33.50;51.40;;;;;;5075021;28;20359;-75
2021/06/18 09:15:58;;;;;;;8.63;7.50;;;33.80;51.40;;;;;;5073483;28;20045;-73
2021/06/18 09:18:28;;;;;;;7.03;6.50;;;33.30;51.80;;;;;;5072533;28;20486;-74
2021/06/18 09:21:14;;;;;;;8.25;7.45;;;33.40;52.40;;;;;;5076565;28;20049;-73
2021/06/18 09:24:00;;;;;;;7.47;6.75;;;33.00;52.30;;;;;;5087580;28;20041;-74
2021/06/18 09:26:29;;;;;;;8.75;7.85;;;34.00;51.40;;;;;;5072786;28;20397;-75
2021/06/18 09:28:56;;;;;;;8.27;7.47;;;34.20;51.50;;;;;;5086796;28;20056;-75
2021/06/18 09:31:24;;;;;;;7.68;7.05;;;34.00;52.20;;;;;;5092042;28;20381;-73
2021/06/18 09:33:50;;;;;;;8.13;7.40;;;34.70;50.50;;;;;;5093977;28;20043;-74
2021/06/18 09:36:16;;;;;;;8.10;7.32;;;34.50;50.10;;;;;;5072349;28;20040;-74
2021/06/18 09:38:49;;;;;;;7.15;6.40;;;35.30;50.10;;;;;;5073434;28;20033;-75
2021/06/18 09:41:41;;;;;;;9.68;6.85;;;35.10;48.60;;;;;;5073549;28;20032;-75
2021/06/18 09:44:16;;;;;;;6.18;5.55;;;35.00;49.10;;;;;;5073466;28;20029;-73
2021/06/18 09:46:50;;;;;;;7.05;6.35;;;34.70;48.00;;;;;;5072708;28;20482;-74
2021/06/18 09:49:34;;;;;;;7.45;6.72;;;35.40;48.00;;;;;;5072625;28;20040;-74
2021/06/18 09:52:18;;;;;;;7.15;5.38;;;35.50;47.50;;;;;;5080503;28;20035;-73
2021/06/18 09:54:49;;;;;;;6.10;5.47;;;34.70;47.10;;;;;;5087837;28;20389;-75
2021/06/18 09:57:17;;;;;;;5.85;5.35;;;34.50;47.30;;;;;;5077378;28;20401;-74
2021/06/18 09:59:52;;;;;;;9.87;4.90;;;34.10;45.80;;;;;;5072034;28;20053;-74
2021/06/18 10:02:21;;;;;;;7.60;5.45;;;34.50;45.70;;;;;;5073727;28;20051;-75
2021/06/18 10:04:49;;;;;;;;;;;34.30;46.10;;;;;;5081776;28;20496;-76
2021/06/18 10:07:16;;;;;;;6.57;5.78;;;35.00;46.70;;;;;;5074194;28;19931;-75
2021/06/18 10:09:44;;;;;;;7.15;6.45;;;36.00;46.10;;;;;;5073296;28;20040;-75
2021/06/18 10:12:10;;;;;;;7.82;6.53;;;36.40;46.80;;;;;;5072313;28;20036;-75
2021/06/18 10:14:37;;;;;;;6.47;5.78;;;37.20;45.80;;;;;;5071602;28;20383;-75
2021/06/18 10:17:03;;;;;;;7.68;6.22;;;36.30;45.00;;;;;;5073166;28;20032;-76
2021/06/18 10:19:32;;;;;;;9.05;6.13;;;35.80;45.80;;;;;;5071377;28;20044;-75
2021/06/18 10:22:10;;;;;;;7.80;6.03;;;36.00;46.80;;;;;;5072694;28;20373;-74
2021/06/18 10:24:45;;;;;;;8.57;6.90;;;35.80;47.30;;;;;;5072316;28;20055;-75
2021/06/18 10:27:16;;;;;;;7.30;6.70;;;34.30;48.20;;;;;;5072816;28;20032;-75
2021/06/18 10:29:42;;;;;;;7.30;6.70;;;34.50;49.20;;;;;;5053986;28;20048;-74
2021/06/18 10:32:26;;;;;;;9.10;7.80;;;34.90;49.30;;;;;;5071718;28;20040;-73
2021/06/18 10:34:57;;;;;;;7.78;6.90;;;35.60;49.60;;;;;;5075122;28;20045;-74
2021/06/18 10:37:29;;;;;;;9.18;7.57;;;36.10;48.00;;;;;;5072006;28;20032;-75
2021/06/18 10:39:57;;;;;;;9.25;7.95;;;35.90;47.90;;;;;;5072305;28;20373;-74
2021/06/18 10:42:24;;;;;;;9.85;7.20;;;35.40;48.00;;;;;;5082579;28;20047;-73
2021/06/18 10:44:52;;;;;;;9.70;8.05;;;35.10;48.20;;;;;;5083013;28;20036;-76
2021/06/18 10:47:25;;;;;;;12.27;8.40;;;35.00;48.00;;;;;;5071917;28;20037;-75
2021/06/18 10:49:52;;;;;;;8.73;7.82;;;34.90;48.80;;;;;;5072054;28;20381;-74
2021/06/18 10:52:19;;;;;;;12.85;8.35;;;34.20;48.40;;;;;;5071185;28;20029;-75
2021/06/18 10:54:58;;;;;;;9.50;8.57;;;34.20;49.60;;;;;;5072464;28;20434;-76
2021/06/18 10:57:29;;;;;;;10.38;8.43;;;34.30;50.60;;;;;;5071172;28;20052;-76
2021/06/18 11:00:17;;;;;;;11.25;8.95;;;34.40;50.20;;;;;;5072600;28;20385;-75
2021/06/18 11:02:44;;;;;;;10.15;8.40;;;34.30;50.90;;;;;;5072690;28;20041;-75
2021/06/18 11:05:25;;;;;;;9.90;7.72;;;34.20;49.70;;;;;;5082606;28;20456;-75
2021/06/18 11:08:25;;;;;;;10.20;7.90;;;34.40;50.00;;;;;;5089522;28;20044;-75
2021/06/18 11:10:57;;;;;;;12.32;8.55;;;34.80;49.70;;;;;;5071984;28;20067;-74
2021/06/18 11:13:23;;;;;;;10.75;8.98;;;35.30;49.20;;;;;;5063063;28;20052;-74
2021/06/18 11:15:50;;;;;;;9.80;7.95;;;34.90;48.90;;;;;;5072467;28;20036;-74
2021/06/18 11:18:19;;;;;;;9.68;8.73;;;34.50;50.40;;;;;;5071536;28;20033;-75
2021/06/18 11:20:51;;;;;;;;;;;34.80;50.60;;;;;;5077132;28;20032;-75
2021/06/18 11:23:28;;;;;;;9.30;8.38;;;34.70;48.90;;;;;;5080134;28;19908;-75
2021/06/18 11:25:58;;;;;;;10.90;7.55;;;35.00;50.30;;;;;;5072157;28;20413;-74
2021/06/18 11:28:25;;;;;;;11.48;8.60;;;35.40;49.10;;;;;;5071511;28;20036;-74
2021/06/18 11:30:56;;;;;;;9.00;8.07;;;35.50;49.30;;;;;;5071068;28;20038;-75
2021/06/18 11:34:01;;;;;;;9.90;8.15;;;35.70;50.10;;;;;;5071774;28;20033;-75
2021/06/18 11:36:35;;;;;;;9.23;8.38;;;35.60;49.10;;;;;;5070754;28;20049;-75
2021/06/18 11:39:04;;;;;;;9.35;8.48;;;34.80;49.80;;;;;;5071361;28;20033;-75
2021/06/18 11:41:32;;;;;;;9.85;8.20;;;34.10;50.30;;;;;;5075097;28;20025;-75
2021/06/18 11:44:01;;;;;;;9.43;8.50;;;34.00;50.10;;;;;;5075571;28;20028;-76
2021/06/18 11:46:30;;;;;;;7.95;6.97;;;33.80;50.30;;;;;;5074962;28;20024;-74
2021/06/18 11:49:07;;;;;;;8.60;7.80;;;34.10;50.20;;;;;;5085192;28;20043;-75
2021/06/18 11:51:33;;;;;;;8.60;7.90;;;34.10;49.50;;;;;;5089701;28;20513;-75
2021/06/18 11:53:59;;;;;;;13.82;7.85;;;33.80;50.50;;;;;;5074709;28;20049;-75
2021/06/18 11:56:30;;;;;;;10.18;7.57;;;34.10;49.80;;;;;;5074365;28;20048;-75
2021/06/18 11:58:57;;;;;;;8.93;7.78;;;34.10;49.10;;;;;;5074857;28;20048;-75
2021/06/18 12:01:28;;;;;;;7.93;7.18;;;34.50;49.10;;;;;;5074151;28;20037;-75
2021/06/18 12:03:57;;;;;;;9.85;7.65;;;34.60;49.00;;;;;;5075484;28;20044;-74
2021/06/18 12:06:38;;;;;;;8.35;7.55;;;34.90;49.00;;;;;;5082222;28;20033;-75
2021/06/18 12:09:13;;;;;;;9.35;8.02;;;34.80;48.30;;;;;;5075456;28;20037;-75
2021/06/18 12:11:57;;;;;;;8.23;7.53;;;34.40;47.90;;;;;;5075484;28;20386;-75
2021/06/18 12:14:24;;;;;;;7.57;6.72;;;34.10;48.90;;;;;;5079242;28;20055;-74
2021/06/18 12:16:52;;;;;;;6.95;6.25;;;34.50;48.00;;;;;;5075099;28;20466;-75
2021/06/18 12:19:30;;;;;;;8.40;5.60;;;34.30;47.60;;;;;;5075138;28;20543;-75
2021/06/18 12:21:59;;;;;;;8.05;6.55;;;34.50;48.10;;;;;;5089082;28;20043;-76
2021/06/18 12:24:26;;;;;;;;;;;34.90;47.50;;;;;;5075132;28;20032;-74
2021/06/18 12:26:53;;;;;;;7.93;6.18;;;35.10;46.40;;;;;;5074829;28;19916;-74
2021/06/18 12:29:22;;;;;;;7.63;6.20;;;35.20;45.40;;;;;;5083129;28;20393;-73
2021/06/18 12:31:49;;;;;;;6.80;6.25;;;34.50;46.00;;;;;;5075095;28;20035;-75
2021/06/18 12:34:16;;;;;;;6.68;5.88;;;34.40;46.80;;;;;;5077978;28;20031;-75
2021/06/18 12:36:42;;;;;;;6.28;4.68;;;35.00;46.20;;;;;;5093303;28;20460;-75
2021/06/18 12:39:13;;;;;;;8.18;5.10;;;35.20;44.40;;;;;;5074354;28;20045;-76
2021/06/18 12:41:40;;;;;;;5.63;4.88;;;35.20;44.20;;;;;;5077472;28;20052;-75
2021/06/18 12:44:07;;;;;;;6.72;5.15;;;34.70;44.30;;;;;;5083592;28;20044;-74
2021/06/18 12:46:34;;;;;;;6.97;5.30;;;34.20;45.00;;;;;;5083503;28;20035;-76
2021/06/18 12:49:10;;;;;;;6.80;5.15;;;34.20;44.50;;;;;;5084252;28;20049;-76